sensor_id;sensor_type;location;lat;lon;timestamp;P1;durP1;ratioP1;P2;durP2;ratioP2
68273;SDS011;55104;47.356;19.448;2023-08-20T00:01:57;16.52;;;9.20;;
68273;SDS011;55104;47.356;19.448;2023-08-20T00:05:03;15.87;;;9.30;;
68273;SDS011;55104;47.356;19.448;2023-08-20T00:08:05;17.70;;;8.97;;
68273;SDS011;55104;47.356;19.448;2023-08-20T00:11:08;16.58;;;9.27;;
68273;SDS011;55104;47.356;19.448;2023-08-20T00:14:17;17.33;;;9.48;;
68273;SDS011;55104;47.356;19.448;2023-08-20T00:17:19;18.23;;;9.75;;
68273;SDS011;55104;47.356;19.448;2023-08-20T00:20:21;15.47;;;9.00;;
68273;SDS011;55104;47.356;19.448;2023-08-20T00:23:24;17.47;;;9.50;;
68273;SDS011;55104;47.356;19.448;2023-08-20T00:26:26;16.83;;;8.80;;
68273;SDS011;55104;47.356;19.448;2023-08-20T00:29:28;17.08;;;9.77;;
68273;SDS011;55104;47.356;19.448;2023-08-20T00:32:30;19.73;;;10.48;;
68273;SDS011;55104;47.356;19.448;2023-08-20T00:35:32;15.97;;;10.30;;
68273;SDS011;55104;47.356;19.448;2023-08-20T00:38:34;16.33;;;9.77;;
68273;SDS011;55104;47.356;19.448;2023-08-20T00:41:36;17.10;;;9.80;;
68273;SDS011;55104;47.356;19.448;2023-08-20T00:44:39;16.13;;;9.43;;
68273;SDS011;55104;47.356;19.448;2023-08-20T00:47:43;16.90;;;9.60;;
68273;SDS011;55104;47.356;19.448;2023-08-20T00:50:46;17.00;;;10.10;;
68273;SDS011;55104;47.356;19.448;2023-08-20T00:53:48;17.03;;;9.93;;
68273;SDS011;55104;47.356;19.448;2023-08-20T00:56:50;18.05;;;10.02;;
68273;SDS011;55104;47.356;19.448;2023-08-20T00:59:52;16.52;;;9.48;;
68273;SDS011;55104;47.356;19.448;2023-08-20T01:02:58;16.50;;;9.98;;
68273;SDS011;55104;47.356;19.448;2023-08-20T01:06:12;17.70;;;10.80;;
68273;SDS011;55104;47.356;19.448;2023-08-20T01:09:28;16.37;;;10.10;;
68273;SDS011;55104;47.356;19.448;2023-08-20T01:12:41;18.30;;;10.10;;
68273;SDS011;55104;47.356;19.448;2023-08-20T01:15:45;17.30;;;10.00;;
68273;SDS011;55104;47.356;19.448;2023-08-20T01:18:48;19.30;;;9.63;;
68273;SDS011;55104;47.356;19.448;2023-08-20T01:28:42;16.40;;;9.73;;
68273;SDS011;55104;47.356;19.448;2023-08-20T01:31:46;17.80;;;10.25;;
68273;SDS011;55104;47.356;19.448;2023-08-20T01:34:48;15.75;;;10.10;;
68273;SDS011;55104;47.356;19.448;2023-08-20T01:37:51;16.80;;;10.43;;
68273;SDS011;55104;47.356;19.448;2023-08-20T01:40:53;18.80;;;9.47;;
68273;SDS011;55104;47.356;19.448;2023-08-20T01:43:55;18.33;;;10.18;;
68273;SDS011;55104;47.356;19.448;2023-08-20T01:46:57;18.85;;;9.95;;
68273;SDS011;55104;47.356;19.448;2023-08-20T01:50:03;17.83;;;9.93;;
68273;SDS011;55104;47.356;19.448;2023-08-20T01:53:08;17.67;;;9.37;;
68273;SDS011;55104;47.356;19.448;2023-08-20T01:56:12;18.47;;;9.53;;
68273;SDS011;55104;47.356;19.448;2023-08-20T01:59:15;19.25;;;9.63;;
68273;SDS011;55104;47.356;19.448;2023-08-20T02:02:17;15.23;;;10.02;;
68273;SDS011;55104;47.356;19.448;2023-08-20T02:05:19;18.80;;;9.82;;
68273;SDS011;55104;47.356;19.448;2023-08-20T02:08:21;17.73;;;8.87;;
68273;SDS011;55104;47.356;19.448;2023-08-20T02:11:24;17.60;;;10.07;;
68273;SDS011;55104;47.356;19.448;2023-08-20T02:14:26;17.92;;;10.18;;
68273;SDS011;55104;47.356;19.448;2023-08-20T02:17:30;23.55;;;10.13;;
68273;SDS011;55104;47.356;19.448;2023-08-20T02:20:32;22.45;;;9.88;;
68273;SDS011;55104;47.356;19.448;2023-08-20T02:23:34;17.33;;;9.93;;
68273;SDS011;55104;47.356;19.448;2023-08-20T02:26:36;18.50;;;9.00;;
68273;SDS011;55104;47.356;19.448;2023-08-20T02:29:38;17.85;;;9.95;;
68273;SDS011;55104;47.356;19.448;2023-08-20T02:32:40;18.08;;;9.10;;
68273;SDS011;55104;47.356;19.448;2023-08-20T02:35:42;24.40;;;9.85;;
68273;SDS011;55104;47.356;19.448;2023-08-20T02:38:44;18.27;;;9.73;;
68273;SDS011;55104;47.356;19.448;2023-08-20T02:41:49;16.37;;;9.93;;
68273;SDS011;55104;47.356;19.448;2023-08-20T02:44:51;15.77;;;9.18;;
68273;SDS011;55104;47.356;19.448;2023-08-20T02:47:53;14.85;;;9.43;;
68273;SDS011;55104;47.356;19.448;2023-08-20T02:50:55;15.10;;;9.38;;
68273;SDS011;55104;47.356;19.448;2023-08-20T02:53:57;14.70;;;9.33;;
68273;SDS011;55104;47.356;19.448;2023-08-20T02:57:00;18.30;;;9.40;;
68273;SDS011;55104;47.356;19.448;2023-08-20T03:00:02;16.33;;;9.82;;
68273;SDS011;55104;47.356;19.448;2023-08-20T03:03:05;19.02;;;9.88;;
68273;SDS011;55104;47.356;19.448;2023-08-20T03:06:11;16.25;;;9.57;;
68273;SDS011;55104;47.356;19.448;2023-08-20T03:09:13;17.97;;;10.30;;
68273;SDS011;55104;47.356;19.448;2023-08-20T03:12:15;20.40;;;10.40;;
68273;SDS011;55104;47.356;19.448;2023-08-20T03:15:17;19.70;;;10.73;;
68273;SDS011;55104;47.356;19.448;2023-08-20T03:18:19;18.75;;;10.07;;
68273;SDS011;55104;47.356;19.448;2023-08-20T03:21:22;16.55;;;9.23;;
68273;SDS011;55104;47.356;19.448;2023-08-20T03:24:24;17.60;;;10.17;;
68273;SDS011;55104;47.356;19.448;2023-08-20T03:27:26;23.83;;;10.30;;
68273;SDS011;55104;47.356;19.448;2023-08-20T03:30:28;16.42;;;10.00;;
68273;SDS011;55104;47.356;19.448;2023-08-20T03:33:31;17.13;;;9.52;;
68273;SDS011;55104;47.356;19.448;2023-08-20T03:36:33;16.35;;;10.00;;
68273;SDS011;55104;47.356;19.448;2023-08-20T03:39:35;19.30;;;9.90;;
68273;SDS011;55104;47.356;19.448;2023-08-20T03:42:37;19.87;;;10.03;;
68273;SDS011;55104;47.356;19.448;2023-08-20T03:45:39;15.82;;;10.13;;
68273;SDS011;55104;47.356;19.448;2023-08-20T03:48:42;16.50;;;9.70;;
68273;SDS011;55104;47.356;19.448;2023-08-20T03:51:44;16.17;;;9.98;;
68273;SDS011;55104;47.356;19.448;2023-08-20T03:54:46;21.17;;;9.83;;
68273;SDS011;55104;47.356;19.448;2023-08-20T03:57:49;16.17;;;10.20;;
68273;SDS011;55104;47.356;19.448;2023-08-20T04:00:51;17.75;;;9.65;;
68273;SDS011;55104;47.356;19.448;2023-08-20T04:03:53;19.73;;;9.57;;
68273;SDS011;55104;47.356;19.448;2023-08-20T04:06:56;18.83;;;10.45;;
68273;SDS011;55104;47.356;19.448;2023-08-20T04:09:58;15.57;;;9.80;;
68273;SDS011;55104;47.356;19.448;2023-08-20T04:13:00;17.97;;;9.90;;
68273;SDS011;55104;47.356;19.448;2023-08-20T04:16:02;17.13;;;10.55;;
68273;SDS011;55104;47.356;19.448;2023-08-20T04:19:05;17.42;;;10.23;;
68273;SDS011;55104;47.356;19.448;2023-08-20T04:22:07;16.08;;;10.57;;
68273;SDS011;55104;47.356;19.448;2023-08-20T04:25:09;19.67;;;9.73;;
68273;SDS011;55104;47.356;19.448;2023-08-20T04:28:14;17.03;;;10.20;;
68273;SDS011;55104;47.356;19.448;2023-08-20T04:31:16;16.23;;;9.52;;
68273;SDS011;55104;47.356;19.448;2023-08-20T04:34:25;15.65;;;9.65;;
68273;SDS011;55104;47.356;19.448;2023-08-20T04:37:28;17.77;;;9.85;;
68273;SDS011;55104;47.356;19.448;2023-08-20T04:40:31;17.07;;;9.77;;
68273;SDS011;55104;47.356;19.448;2023-08-20T04:43:33;15.53;;;10.07;;
68273;SDS011;55104;47.356;19.448;2023-08-20T04:46:36;17.50;;;10.18;;
68273;SDS011;55104;47.356;19.448;2023-08-20T04:49:39;19.38;;;10.50;;
68273;SDS011;55104;47.356;19.448;2023-08-20T04:52:41;20.25;;;10.27;;
68273;SDS011;55104;47.356;19.448;2023-08-20T04:55:43;16.33;;;10.33;;
68273;SDS011;55104;47.356;19.448;2023-08-20T04:58:46;15.90;;;9.83;;
68273;SDS011;55104;47.356;19.448;2023-08-20T05:01:58;18.70;;;10.25;;
68273;SDS011;55104;47.356;19.448;2023-08-20T05:05:23;15.80;;;9.65;;
68273;SDS011;55104;47.356;19.448;2023-08-20T05:08:25;17.42;;;9.50;;
68273;SDS011;55104;47.356;19.448;2023-08-20T05:11:27;17.60;;;9.50;;
68273;SDS011;55104;47.356;19.448;2023-08-20T05:14:33;16.03;;;9.53;;
68273;SDS011;55104;47.356;19.448;2023-08-20T05:17:35;17.35;;;9.82;;
68273;SDS011;55104;47.356;19.448;2023-08-20T05:20:37;16.35;;;9.18;;
68273;SDS011;55104;47.356;19.448;2023-08-20T05:23:41;15.10;;;9.05;;
68273;SDS011;55104;47.356;19.448;2023-08-20T05:26:43;15.80;;;9.17;;
68273;SDS011;55104;47.356;19.448;2023-08-20T05:29:45;13.33;;;8.40;;
68273;SDS011;55104;47.356;19.448;2023-08-20T05:32:49;15.15;;;8.40;;
68273;SDS011;55104;47.356;19.448;2023-08-20T05:35:51;14.50;;;8.90;;
68273;SDS011;55104;47.356;19.448;2023-08-20T05:38:53;13.77;;;9.07;;
68273;SDS011;55104;47.356;19.448;2023-08-20T05:41:56;14.07;;;8.47;;
68273;SDS011;55104;47.356;19.448;2023-08-20T05:44:59;14.97;;;8.20;;
68273;SDS011;55104;47.356;19.448;2023-08-20T05:48:03;14.00;;;8.27;;
68273;SDS011;55104;47.356;19.448;2023-08-20T05:51:05;15.02;;;8.32;;
68273;SDS011;55104;47.356;19.448;2023-08-20T05:54:07;14.90;;;8.73;;
68273;SDS011;55104;47.356;19.448;2023-08-20T05:57:09;14.60;;;8.50;;
68273;SDS011;55104;47.356;19.448;2023-08-20T06:00:12;14.23;;;8.23;;
68273;SDS011;55104;47.356;19.448;2023-08-20T06:03:14;15.73;;;7.88;;
68273;SDS011;55104;47.356;19.448;2023-08-20T06:06:16;13.85;;;8.35;;
68273;SDS011;55104;47.356;19.448;2023-08-20T06:09:18;13.27;;;7.70;;
68273;SDS011;55104;47.356;19.448;2023-08-20T06:12:21;13.07;;;7.97;;
68273;SDS011;55104;47.356;19.448;2023-08-20T06:15:23;13.27;;;7.97;;
68273;SDS011;55104;47.356;19.448;2023-08-20T06:18:25;15.00;;;8.25;;
68273;SDS011;55104;47.356;19.448;2023-08-20T06:21:27;15.52;;;7.88;;
68273;SDS011;55104;47.356;19.448;2023-08-20T06:24:29;14.07;;;7.93;;
68273;SDS011;55104;47.356;19.448;2023-08-20T06:27:31;14.93;;;8.03;;
68273;SDS011;55104;47.356;19.448;2023-08-20T06:30:35;14.63;;;8.87;;
68273;SDS011;55104;47.356;19.448;2023-08-20T06:33:37;14.82;;;7.90;;
68273;SDS011;55104;47.356;19.448;2023-08-20T06:36:40;14.15;;;7.70;;
68273;SDS011;55104;47.356;19.448;2023-08-20T06:39:42;12.07;;;7.38;;
68273;SDS011;55104;47.356;19.448;2023-08-20T06:42:44;13.00;;;8.47;;
68273;SDS011;55104;47.356;19.448;2023-08-20T06:45:46;11.40;;;7.13;;
68273;SDS011;55104;47.356;19.448;2023-08-20T06:48:48;13.27;;;6.75;;
68273;SDS011;55104;47.356;19.448;2023-08-20T06:51:50;13.05;;;7.78;;
68273;SDS011;55104;47.356;19.448;2023-08-20T06:54:52;12.63;;;7.40;;
68273;SDS011;55104;47.356;19.448;2023-08-20T06:57:54;11.63;;;7.63;;
68273;SDS011;55104;47.356;19.448;2023-08-20T07:00:56;12.13;;;7.00;;
68273;SDS011;55104;47.356;19.448;2023-08-20T07:04:09;12.30;;;6.93;;
68273;SDS011;55104;47.356;19.448;2023-08-20T07:07:11;13.48;;;7.55;;
68273;SDS011;55104;47.356;19.448;2023-08-20T07:10:14;11.35;;;6.53;;
68273;SDS011;55104;47.356;19.448;2023-08-20T07:13:16;11.57;;;6.23;;
68273;SDS011;55104;47.356;19.448;2023-08-20T07:16:18;10.37;;;6.57;;
68273;SDS011;55104;47.356;19.448;2023-08-20T07:19:20;11.77;;;6.85;;
68273;SDS011;55104;47.356;19.448;2023-08-20T07:22:22;10.65;;;6.50;;
68273;SDS011;55104;47.356;19.448;2023-08-20T07:25:24;9.90;;;6.28;;
68273;SDS011;55104;47.356;19.448;2023-08-20T07:28:26;10.40;;;6.57;;
68273;SDS011;55104;47.356;19.448;2023-08-20T07:31:48;12.50;;;6.77;;
68273;SDS011;55104;47.356;19.448;2023-08-20T07:34:51;11.82;;;6.70;;
68273;SDS011;55104;47.356;19.448;2023-08-20T07:37:53;11.35;;;6.30;;
68273;SDS011;55104;47.356;19.448;2023-08-20T07:40:55;10.52;;;6.25;;
68273;SDS011;55104;47.356;19.448;2023-08-20T07:43:58;10.13;;;7.00;;
68273;SDS011;55104;47.356;19.448;2023-08-20T07:47:00;9.93;;;6.30;;
68273;SDS011;55104;47.356;19.448;2023-08-20T07:50:02;12.15;;;5.90;;
68273;SDS011;55104;47.356;19.448;2023-08-20T07:53:06;12.52;;;6.10;;
68273;SDS011;55104;47.356;19.448;2023-08-20T07:56:08;13.25;;;6.97;;
68273;SDS011;55104;47.356;19.448;2023-08-20T07:59:10;12.07;;;6.50;;
68273;SDS011;55104;47.356;19.448;2023-08-20T08:02:12;10.47;;;6.20;;
68273;SDS011;55104;47.356;19.448;2023-08-20T08:05:14;9.90;;;6.18;;
68273;SDS011;55104;47.356;19.448;2023-08-20T08:08:17;9.05;;;6.07;;
68273;SDS011;55104;47.356;19.448;2023-08-20T08:11:19;9.48;;;6.13;;
68273;SDS011;55104;47.356;19.448;2023-08-20T08:14:21;9.17;;;6.00;;
68273;SDS011;55104;47.356;19.448;2023-08-20T08:17:24;9.73;;;6.50;;
68273;SDS011;55104;47.356;19.448;2023-08-20T08:20:26;10.10;;;6.35;;
68273;SDS011;55104;47.356;19.448;2023-08-20T08:23:28;10.73;;;6.25;;
68273;SDS011;55104;47.356;19.448;2023-08-20T08:26:30;10.77;;;5.95;;
68273;SDS011;55104;47.356;19.448;2023-08-20T08:29:32;11.10;;;6.10;;
68273;SDS011;55104;47.356;19.448;2023-08-20T08:32:35;9.73;;;6.17;;
68273;SDS011;55104;47.356;19.448;2023-08-20T08:35:37;9.60;;;6.35;;
68273;SDS011;55104;47.356;19.448;2023-08-20T08:38:39;10.23;;;6.07;;
68273;SDS011;55104;47.356;19.448;2023-08-20T08:41:41;9.48;;;5.65;;
68273;SDS011;55104;47.356;19.448;2023-08-20T08:44:43;9.80;;;5.80;;
68273;SDS011;55104;47.356;19.448;2023-08-20T08:47:47;9.00;;;6.03;;
68273;SDS011;55104;47.356;19.448;2023-08-20T08:50:50;11.30;;;5.65;;
68273;SDS011;55104;47.356;19.448;2023-08-20T08:53:53;9.02;;;5.60;;
68273;SDS011;55104;47.356;19.448;2023-08-20T08:56:57;10.10;;;5.57;;
68273;SDS011;55104;47.356;19.448;2023-08-20T08:59:59;10.50;;;5.90;;
68273;SDS011;55104;47.356;19.448;2023-08-20T09:03:01;9.07;;;5.87;;
68273;SDS011;55104;47.356;19.448;2023-08-20T09:06:08;8.20;;;5.72;;
68273;SDS011;55104;47.356;19.448;2023-08-20T09:09:11;9.48;;;6.03;;
68273;SDS011;55104;47.356;19.448;2023-08-20T09:12:17;10.50;;;6.28;;
68273;SDS011;55104;47.356;19.448;2023-08-20T09:15:21;8.97;;;5.60;;
68273;SDS011;55104;47.356;19.448;2023-08-20T09:18:23;9.53;;;5.97;;
68273;SDS011;55104;47.356;19.448;2023-08-20T09:21:28;9.05;;;6.03;;
68273;SDS011;55104;47.356;19.448;2023-08-20T09:24:38;11.43;;;6.57;;
68273;SDS011;55104;47.356;19.448;2023-08-20T09:27:43;10.82;;;6.05;;
68273;SDS011;55104;47.356;19.448;2023-08-20T09:30:58;8.93;;;6.03;;
68273;SDS011;55104;47.356;19.448;2023-08-20T09:34:04;9.87;;;5.50;;
68273;SDS011;55104;47.356;19.448;2023-08-20T09:37:10;10.10;;;4.82;;
68273;SDS011;55104;47.356;19.448;2023-08-20T09:40:14;9.10;;;5.55;;
68273;SDS011;55104;47.356;19.448;2023-08-20T09:43:16;8.20;;;5.38;;
68273;SDS011;55104;47.356;19.448;2023-08-20T09:46:18;8.00;;;5.13;;
68273;SDS011;55104;47.356;19.448;2023-08-20T09:49:22;8.53;;;5.13;;
68273;SDS011;55104;47.356;19.448;2023-08-20T09:52:31;8.65;;;5.07;;
68273;SDS011;55104;47.356;19.448;2023-08-20T09:55:41;8.07;;;5.10;;
68273;SDS011;55104;47.356;19.448;2023-08-20T09:58:45;9.23;;;5.05;;
68273;SDS011;55104;47.356;19.448;2023-08-20T10:01:48;9.33;;;5.03;;
68273;SDS011;55104;47.356;19.448;2023-08-20T10:04:52;7.93;;;4.50;;
68273;SDS011;55104;47.356;19.448;2023-08-20T10:07:55;7.78;;;4.35;;
68273;SDS011;55104;47.356;19.448;2023-08-20T10:10:59;10.02;;;4.97;;
68273;SDS011;55104;47.356;19.448;2023-08-20T10:14:01;11.32;;;4.95;;
68273;SDS011;55104;47.356;19.448;2023-08-20T10:17:07;8.07;;;4.13;;
68273;SDS011;55104;47.356;19.448;2023-08-20T10:20:12;7.30;;;4.80;;
68273;SDS011;55104;47.356;19.448;2023-08-20T10:23:15;7.75;;;5.00;;
68273;SDS011;55104;47.356;19.448;2023-08-20T10:26:24;9.55;;;5.20;;
68273;SDS011;55104;47.356;19.448;2023-08-20T10:29:36;10.77;;;6.03;;
68273;SDS011;55104;47.356;19.448;2023-08-20T10:32:46;7.33;;;4.53;;
68273;SDS011;55104;47.356;19.448;2023-08-20T10:35:49;7.67;;;5.10;;
68273;SDS011;55104;47.356;19.448;2023-08-20T10:38:52;11.00;;;5.00;;
68273;SDS011;55104;47.356;19.448;2023-08-20T10:42:08;8.02;;;5.07;;
68273;SDS011;55104;47.356;19.448;2023-08-20T10:45:12;9.52;;;4.78;;
68273;SDS011;55104;47.356;19.448;2023-08-20T10:48:15;9.83;;;4.97;;
68273;SDS011;55104;47.356;19.448;2023-08-20T10:51:17;10.37;;;5.00;;
68273;SDS011;55104;47.356;19.448;2023-08-20T10:54:26;10.43;;;5.00;;
68273;SDS011;55104;47.356;19.448;2023-08-20T10:57:33;8.30;;;4.75;;
68273;SDS011;55104;47.356;19.448;2023-08-20T11:00:36;8.60;;;4.55;;
68273;SDS011;55104;47.356;19.448;2023-08-20T11:03:39;8.37;;;4.70;;
68273;SDS011;55104;47.356;19.448;2023-08-20T11:06:42;9.27;;;5.03;;
68273;SDS011;55104;47.356;19.448;2023-08-20T11:09:45;10.05;;;4.80;;
68273;SDS011;55104;47.356;19.448;2023-08-20T11:12:50;8.77;;;4.38;;
68273;SDS011;55104;47.356;19.448;2023-08-20T11:15:52;9.02;;;4.53;;
68273;SDS011;55104;47.356;19.448;2023-08-20T11:18:54;7.60;;;4.40;;
68273;SDS011;55104;47.356;19.448;2023-08-20T11:21:56;7.93;;;4.47;;
68273;SDS011;55104;47.356;19.448;2023-08-20T11:24:59;8.02;;;4.20;;
68273;SDS011;55104;47.356;19.448;2023-08-20T11:28:01;7.47;;;4.25;;
68273;SDS011;55104;47.356;19.448;2023-08-20T11:31:04;8.25;;;4.95;;
68273;SDS011;55104;47.356;19.448;2023-08-20T11:34:07;7.17;;;4.20;;
68273;SDS011;55104;47.356;19.448;2023-08-20T11:37:12;9.10;;;4.60;;
68273;SDS011;55104;47.356;19.448;2023-08-20T11:40:14;9.10;;;4.47;;
68273;SDS011;55104;47.356;19.448;2023-08-20T11:43:16;7.60;;;4.53;;
68273;SDS011;55104;47.356;19.448;2023-08-20T11:46:19;8.82;;;4.60;;
68273;SDS011;55104;47.356;19.448;2023-08-20T11:49:27;7.87;;;4.50;;
68273;SDS011;55104;47.356;19.448;2023-08-20T11:52:31;8.20;;;4.63;;
68273;SDS011;55104;47.356;19.448;2023-08-20T11:55:42;10.95;;;5.32;;
68273;SDS011;55104;47.356;19.448;2023-08-20T11:58:49;7.80;;;4.97;;
68273;SDS011;55104;47.356;19.448;2023-08-20T12:01:52;8.95;;;4.85;;
68273;SDS011;55104;47.356;19.448;2023-08-20T12:04:58;8.77;;;4.73;;
68273;SDS011;55104;47.356;19.448;2023-08-20T12:08:01;8.50;;;4.80;;
68273;SDS011;55104;47.356;19.448;2023-08-20T12:11:04;9.57;;;5.22;;
68273;SDS011;55104;47.356;19.448;2023-08-20T12:14:06;7.70;;;4.55;;
68273;SDS011;55104;47.356;19.448;2023-08-20T12:17:08;9.63;;;4.90;;
68273;SDS011;55104;47.356;19.448;2023-08-20T12:20:10;9.23;;;4.97;;
68273;SDS011;55104;47.356;19.448;2023-08-20T12:23:14;7.23;;;4.90;;
68273;SDS011;55104;47.356;19.448;2023-08-20T12:26:16;11.90;;;5.13;;
68273;SDS011;55104;47.356;19.448;2023-08-20T12:29:18;10.05;;;4.93;;
68273;SDS011;55104;47.356;19.448;2023-08-20T12:32:20;9.65;;;4.95;;
68273;SDS011;55104;47.356;19.448;2023-08-20T12:35:22;10.67;;;5.07;;
68273;SDS011;55104;47.356;19.448;2023-08-20T12:38:25;11.67;;;5.07;;
68273;SDS011;55104;47.356;19.448;2023-08-20T12:41:27;7.80;;;5.05;;
68273;SDS011;55104;47.356;19.448;2023-08-20T12:44:29;7.60;;;4.68;;
68273;SDS011;55104;47.356;19.448;2023-08-20T12:47:31;7.30;;;4.35;;
68273;SDS011;55104;47.356;19.448;2023-08-20T12:50:33;6.77;;;4.17;;
68273;SDS011;55104;47.356;19.448;2023-08-20T12:53:35;7.57;;;4.83;;
68273;SDS011;55104;47.356;19.448;2023-08-20T12:56:40;8.68;;;5.03;;
68273;SDS011;55104;47.356;19.448;2023-08-20T12:59:42;8.02;;;4.32;;
68273;SDS011;55104;47.356;19.448;2023-08-20T13:02:45;7.60;;;4.60;;
68273;SDS011;55104;47.356;19.448;2023-08-20T13:05:47;9.03;;;4.50;;
68273;SDS011;55104;47.356;19.448;2023-08-20T13:08:50;8.97;;;4.33;;
68273;SDS011;55104;47.356;19.448;2023-08-20T13:11:52;8.90;;;4.97;;
68273;SDS011;55104;47.356;19.448;2023-08-20T13:14:57;11.00;;;4.53;;
68273;SDS011;55104;47.356;19.448;2023-08-20T13:17:59;8.48;;;4.75;;
68273;SDS011;55104;47.356;19.448;2023-08-20T13:21:02;7.20;;;4.13;;
68273;SDS011;55104;47.356;19.448;2023-08-20T13:24:06;9.33;;;4.70;;
68273;SDS011;55104;47.356;19.448;2023-08-20T13:27:08;7.50;;;4.57;;
68273;SDS011;55104;47.356;19.448;2023-08-20T13:30:10;8.13;;;4.43;;
68273;SDS011;55104;47.356;19.448;2023-08-20T13:33:13;7.90;;;4.45;;
68273;SDS011;55104;47.356;19.448;2023-08-20T13:36:16;7.63;;;4.23;;
68273;SDS011;55104;47.356;19.448;2023-08-20T13:39:18;9.23;;;4.70;;
68273;SDS011;55104;47.356;19.448;2023-08-20T13:42:20;7.32;;;4.20;;
68273;SDS011;55104;47.356;19.448;2023-08-20T13:45:23;10.13;;;4.53;;
68273;SDS011;55104;47.356;19.448;2023-08-20T13:48:25;7.28;;;4.30;;
68273;SDS011;55104;47.356;19.448;2023-08-20T13:51:28;8.37;;;4.57;;
68273;SDS011;55104;47.356;19.448;2023-08-20T13:54:30;7.37;;;4.87;;
68273;SDS011;55104;47.356;19.448;2023-08-20T13:57:32;8.30;;;4.72;;
68273;SDS011;55104;47.356;19.448;2023-08-20T14:00:34;9.15;;;4.28;;
68273;SDS011;55104;47.356;19.448;2023-08-20T14:03:37;9.15;;;4.70;;
68273;SDS011;55104;47.356;19.448;2023-08-20T14:06:39;8.10;;;4.30;;
68273;SDS011;55104;47.356;19.448;2023-08-20T14:09:41;7.87;;;4.60;;
68273;SDS011;55104;47.356;19.448;2023-08-20T14:12:43;9.40;;;4.57;;
68273;SDS011;55104;47.356;19.448;2023-08-20T14:15:45;10.38;;;4.68;;
68273;SDS011;55104;47.356;19.448;2023-08-20T14:18:48;7.70;;;5.00;;
68273;SDS011;55104;47.356;19.448;2023-08-20T14:21:51;7.00;;;4.30;;
68273;SDS011;55104;47.356;19.448;2023-08-20T14:24:54;8.23;;;4.47;;
68273;SDS011;55104;47.356;19.448;2023-08-20T14:27:56;8.15;;;4.90;;
68273;SDS011;55104;47.356;19.448;2023-08-20T14:31:01;7.75;;;4.68;;
68273;SDS011;55104;47.356;19.448;2023-08-20T14:34:04;7.80;;;4.88;;
68273;SDS011;55104;47.356;19.448;2023-08-20T14:37:07;7.80;;;4.83;;
68273;SDS011;55104;47.356;19.448;2023-08-20T14:40:09;8.43;;;5.07;;
68273;SDS011;55104;47.356;19.448;2023-08-20T14:43:12;9.27;;;4.80;;
68273;SDS011;55104;47.356;19.448;2023-08-20T14:46:14;8.32;;;4.90;;
68273;SDS011;55104;47.356;19.448;2023-08-20T14:49:16;9.65;;;5.30;;
68273;SDS011;55104;47.356;19.448;2023-08-20T14:52:20;8.20;;;5.00;;
68273;SDS011;55104;47.356;19.448;2023-08-20T14:55:22;9.50;;;4.93;;
68273;SDS011;55104;47.356;19.448;2023-08-20T14:58:24;9.50;;;5.53;;
68273;SDS011;55104;47.356;19.448;2023-08-20T15:01:26;7.97;;;4.57;;
68273;SDS011;55104;47.356;19.448;2023-08-20T15:04:28;7.97;;;4.70;;
68273;SDS011;55104;47.356;19.448;2023-08-20T15:07:30;8.87;;;5.37;;
68273;SDS011;55104;47.356;19.448;2023-08-20T15:10:33;9.43;;;5.33;;
68273;SDS011;55104;47.356;19.448;2023-08-20T15:13:35;9.75;;;5.00;;
68273;SDS011;55104;47.356;19.448;2023-08-20T15:16:37;8.07;;;4.80;;
68273;SDS011;55104;47.356;19.448;2023-08-20T15:19:39;8.57;;;5.18;;
68273;SDS011;55104;47.356;19.448;2023-08-20T15:22:41;8.00;;;5.10;;
68273;SDS011;55104;47.356;19.448;2023-08-20T15:25:46;13.07;;;5.70;;
68273;SDS011;55104;47.356;19.448;2023-08-20T15:28:48;9.15;;;5.28;;
68273;SDS011;55104;47.356;19.448;2023-08-20T15:31:50;8.85;;;5.55;;
68273;SDS011;55104;47.356;19.448;2023-08-20T15:34:53;8.27;;;5.25;;
68273;SDS011;55104;47.356;19.448;2023-08-20T15:37:55;13.80;;;5.93;;
68273;SDS011;55104;47.356;19.448;2023-08-20T15:40:57;8.07;;;5.40;;
68273;SDS011;55104;47.356;19.448;2023-08-20T15:44:01;9.00;;;5.25;;
68273;SDS011;55104;47.356;19.448;2023-08-20T15:47:03;10.35;;;5.43;;
68273;SDS011;55104;47.356;19.448;2023-08-20T15:50:05;9.18;;;5.30;;
68273;SDS011;55104;47.356;19.448;2023-08-20T15:53:08;10.80;;;5.87;;
68273;SDS011;55104;47.356;19.448;2023-08-20T15:56:10;11.37;;;5.43;;
68273;SDS011;55104;47.356;19.448;2023-08-20T15:59:13;7.50;;;4.85;;
68273;SDS011;55104;47.356;19.448;2023-08-20T16:02:15;9.43;;;4.80;;
68273;SDS011;55104;47.356;19.448;2023-08-20T16:05:18;7.55;;;4.85;;
68273;SDS011;55104;47.356;19.448;2023-08-20T16:08:21;8.67;;;4.83;;
68273;SDS011;55104;47.356;19.448;2023-08-20T16:11:23;8.37;;;4.87;;
68273;SDS011;55104;47.356;19.448;2023-08-20T16:14:25;8.23;;;4.88;;
68273;SDS011;55104;47.356;19.448;2023-08-20T16:17:27;8.52;;;5.15;;
68273;SDS011;55104;47.356;19.448;2023-08-20T16:20:29;8.32;;;5.35;;
68273;SDS011;55104;47.356;19.448;2023-08-20T16:23:34;9.20;;;4.43;;
68273;SDS011;55104;47.356;19.448;2023-08-20T16:26:36;8.47;;;4.57;;
68273;SDS011;55104;47.356;19.448;2023-08-20T16:29:39;8.27;;;5.18;;
68273;SDS011;55104;47.356;19.448;2023-08-20T16:32:41;8.40;;;5.03;;
68273;SDS011;55104;47.356;19.448;2023-08-20T16:35:46;7.78;;;5.00;;
68273;SDS011;55104;47.356;19.448;2023-08-20T16:38:48;8.97;;;4.67;;
68273;SDS011;55104;47.356;19.448;2023-08-20T16:41:50;11.83;;;5.43;;
68273;SDS011;55104;47.356;19.448;2023-08-20T16:44:52;10.13;;;4.82;;
68273;SDS011;55104;47.356;19.448;2023-08-20T16:47:55;11.75;;;5.07;;
68273;SDS011;55104;47.356;19.448;2023-08-20T16:50:58;10.75;;;5.78;;
68273;SDS011;55104;47.356;19.448;2023-08-20T16:54:01;9.63;;;6.17;;
68273;SDS011;55104;47.356;19.448;2023-08-20T16:57:05;11.47;;;5.77;;
68273;SDS011;55104;47.356;19.448;2023-08-20T17:00:07;15.02;;;7.10;;
68273;SDS011;55104;47.356;19.448;2023-08-20T17:03:11;12.38;;;6.32;;
68273;SDS011;55104;47.356;19.448;2023-08-20T17:06:13;9.52;;;6.30;;
68273;SDS011;55104;47.356;19.448;2023-08-20T17:09:15;10.23;;;6.50;;
68273;SDS011;55104;47.356;19.448;2023-08-20T17:12:17;14.67;;;6.27;;
68273;SDS011;55104;47.356;19.448;2023-08-20T17:15:20;13.38;;;6.38;;
68273;SDS011;55104;47.356;19.448;2023-08-20T17:18:22;10.00;;;6.13;;
68273;SDS011;55104;47.356;19.448;2023-08-20T17:21:24;12.68;;;6.43;;
68273;SDS011;55104;47.356;19.448;2023-08-20T17:24:26;11.10;;;6.33;;
68273;SDS011;55104;47.356;19.448;2023-08-20T17:27:28;13.07;;;7.23;;
68273;SDS011;55104;47.356;19.448;2023-08-20T17:30:31;11.13;;;7.50;;
68273;SDS011;55104;47.356;19.448;2023-08-20T17:33:33;14.32;;;7.07;;
68273;SDS011;55104;47.356;19.448;2023-08-20T17:36:36;12.48;;;7.70;;
68273;SDS011;55104;47.356;19.448;2023-08-20T17:39:38;11.37;;;7.13;;
68273;SDS011;55104;47.356;19.448;2023-08-20T17:42:40;15.47;;;7.77;;
68273;SDS011;55104;47.356;19.448;2023-08-20T17:45:42;11.80;;;7.20;;
68273;SDS011;55104;47.356;19.448;2023-08-20T17:48:44;11.05;;;7.47;;
68273;SDS011;55104;47.356;19.448;2023-08-20T17:51:47;12.82;;;7.63;;
68273;SDS011;55104;47.356;19.448;2023-08-20T17:54:50;11.50;;;7.20;;
68273;SDS011;55104;47.356;19.448;2023-08-20T17:57:52;10.83;;;7.00;;
68273;SDS011;55104;47.356;19.448;2023-08-20T18:00:54;11.65;;;7.13;;
68273;SDS011;55104;47.356;19.448;2023-08-20T18:03:56;12.40;;;6.88;;